createdAt,value
2023-07-28T00:00:16.703Z,27.56
2023-07-28T00:05:20.966Z,27.54
2023-07-28T00:10:24.843Z,27.64
2023-07-28T00:15:27.963Z,27.77
2023-07-28T00:20:32.230Z,27.64
2023-07-28T00:25:35.091Z,27.56
2023-07-28T00:30:37.930Z,27.50
2023-07-28T00:35:42.064Z,27.45
2023-07-28T00:40:44.963Z,27.40
2023-07-28T00:45:50.509Z,27.35
2023-07-28T00:50:55.732Z,27.34
2023-07-28T00:55:58.699Z,27.34
2023-07-28T01:01:01.572Z,27.29
2023-07-28T01:06:17.015Z,27.30
2023-07-28T01:11:19.958Z,27.29
2023-07-28T01:16:23.142Z,27.27
2023-07-28T01:21:30.686Z,27.24
2023-07-28T01:26:36.864Z,27.22
2023-07-28T01:31:41.508Z,27.19
2023-07-28T01:36:44.694Z,27.15
2023-07-28T01:41:48.846Z,27.14
2023-07-28T01:46:51.839Z,27.12
2023-07-28T01:51:54.635Z,27.11
2023-07-28T01:56:58.827Z,27.09
2023-07-28T02:02:04.103Z,27.04
2023-07-28T02:07:07.284Z,27.19
2023-07-28T02:12:11.622Z,27.31
2023-07-28T02:17:14.562Z,27.19
2023-07-28T02:22:17.360Z,27.08
2023-07-28T02:27:21.831Z,27.02
2023-07-28T02:32:24.910Z,26.98
2023-07-28T02:37:27.741Z,26.95
2023-07-28T02:42:32.217Z,26.92
2023-07-28T02:47:35.198Z,26.88
2023-07-28T02:52:38.024Z,26.86
2023-07-28T02:57:42.188Z,26.84
2023-07-28T03:02:45.609Z,26.82
2023-07-28T03:07:50.184Z,26.81
2023-07-28T03:12:55.916Z,26.80
2023-07-28T03:17:58.829Z,26.82
2023-07-28T03:23:01.769Z,27.02
2023-07-28T03:28:06.036Z,26.99
2023-07-28T03:33:08.870Z,26.88
2023-07-28T03:38:12.037Z,26.84
2023-07-28T03:43:17.912Z,26.84
2023-07-28T03:48:20.834Z,26.82
2023-07-28T03:53:23.712Z,26.78
2023-07-28T03:58:27.973Z,26.76
2023-07-28T04:03:30.778Z,26.74
2023-07-28T04:08:33.632Z,26.73
2023-07-28T04:13:37.932Z,26.71
2023-07-28T04:18:41.017Z,26.71
2023-07-28T04:23:44.498Z,26.71
2023-07-28T04:28:48.831Z,26.70
2023-07-28T04:33:51.675Z,26.70
2023-07-28T04:38:55.052Z,26.68
2023-07-28T04:44:01.778Z,26.66
2023-07-28T04:49:08.615Z,26.65
2023-07-28T04:54:30.376Z,26.65
2023-07-28T04:59:34.537Z,26.64
2023-07-28T05:04:38.108Z,26.62
2023-07-28T05:09:41.119Z,26.61
2023-07-28T05:14:45.871Z,26.63
2023-07-28T05:19:51.740Z,26.62
2023-07-28T05:25:12.453Z,26.62
2023-07-28T05:30:19.741Z,26.62
2023-07-28T05:35:22.613Z,26.60
2023-07-28T05:40:25.685Z,26.61
2023-07-28T05:45:29.914Z,26.60
2023-07-28T05:50:32.892Z,26.60
2023-07-28T05:55:35.710Z,26.60
2023-07-28T06:00:42.424Z,26.59
2023-07-28T06:05:51.790Z,26.59
2023-07-28T06:10:54.839Z,26.60
2023-07-28T06:15:59.482Z,26.60
2023-07-28T06:21:02.419Z,26.61
2023-07-28T06:26:05.292Z,26.60
2023-07-28T06:31:10.682Z,26.60
2023-07-28T06:36:14.302Z,26.60
2023-07-28T06:41:17.149Z,26.61
2023-07-28T06:46:23.675Z,26.61
2023-07-28T06:51:26.549Z,26.61
2023-07-28T06:56:29.389Z,26.65
2023-07-28T07:01:33.814Z,26.66
2023-07-28T07:06:37.237Z,26.65
2023-07-28T07:11:40.133Z,26.63
2023-07-28T07:16:44.736Z,26.60
2023-07-28T07:21:48.756Z,26.63
2023-07-28T07:26:52.266Z,26.47
2023-07-28T07:31:57.364Z,26.42
2023-07-28T07:37:00.278Z,26.34
2023-07-28T07:42:03.049Z,26.30
2023-07-28T07:47:16.881Z,26.26
2023-07-28T07:52:19.743Z,26.24
2023-07-28T07:57:22.654Z,26.18
2023-07-28T08:02:26.983Z,26.36
2023-07-28T08:07:29.903Z,26.32
2023-07-28T08:12:33.307Z,26.18
2023-07-28T08:17:37.989Z,26.15
2023-07-28T08:22:40.971Z,26.13
2023-07-28T08:27:43.758Z,26.19
2023-07-28T08:32:48.337Z,26.23
2023-07-28T08:37:51.227Z,26.26
2023-07-28T08:42:54.136Z,26.34
2023-07-28T08:47:58.840Z,26.42
2023-07-28T08:53:01.796Z,26.47
2023-07-28T08:58:18.422Z,26.47
2023-07-28T09:03:23.712Z,26.55
2023-07-28T09:08:26.720Z,26.59
2023-07-28T09:13:39.028Z,26.61
2023-07-28T09:18:43.296Z,26.60
2023-07-28T09:23:46.821Z,26.66
2023-07-28T09:28:49.808Z,26.70
2023-07-28T09:33:54.425Z,26.76
2023-07-28T09:38:58.539Z,26.77
2023-07-28T09:44:01.967Z,26.80
2023-07-28T09:49:14.168Z,26.85
2023-07-28T09:54:28.461Z,26.90
2023-07-28T09:59:37.274Z,26.91
2023-07-28T10:04:42.331Z,26.90
2023-07-28T10:09:45.728Z,27.04
2023-07-28T10:14:48.734Z,27.18
2023-07-28T10:19:52.985Z,27.09
2023-07-28T10:24:57.491Z,27.06
2023-07-28T10:30:02.178Z,27.01
2023-07-28T10:35:09.065Z,27.09
2023-07-28T10:40:26.036Z,27.08
2023-07-28T10:45:30.888Z,26.96
2023-07-28T10:50:35.566Z,26.96
2023-07-28T10:55:38.573Z,26.60
2023-07-28T11:00:42.332Z,26.86
2023-07-28T11:05:46.771Z,26.72
2023-07-28T11:10:49.850Z,26.72
2023-07-28T11:15:53.260Z,27.11
2023-07-28T11:20:57.433Z,27.17
2023-07-28T11:26:01.491Z,27.01
2023-07-28T11:31:04.805Z,27.06
2023-07-28T11:36:09.099Z,27.27
2023-07-28T11:41:11.968Z,27.02
2023-07-28T11:46:36.992Z,27.17
2023-07-28T11:51:47.039Z,27.27
2023-07-28T11:56:51.842Z,27.31
2023-07-28T12:07:07.438Z,27.36
2023-07-28T12:22:46.002Z,27.38
2023-07-28T12:27:48.971Z,27.44
2023-07-28T12:38:01.069Z,27.49
2023-07-28T12:43:06.591Z,27.53
2023-07-28T12:48:20.507Z,27.42
2023-07-28T12:53:25.384Z,27.50
2023-07-28T13:03:34.773Z,27.47
2023-07-28T13:13:44.783Z,27.31
2023-07-28T13:18:50.079Z,27.52
2023-07-28T13:23:54.325Z,27.46
2023-07-28T13:28:59.355Z,27.65
2023-07-28T13:34:02.128Z,27.81
2023-07-28T13:39:07.096Z,27.73
2023-07-28T13:44:14.970Z,27.61
2023-07-28T13:49:21.105Z,27.59
2023-07-28T13:54:25.674Z,27.61
2023-07-28T13:59:28.610Z,27.61
2023-07-28T14:04:32.387Z,27.57
2023-07-28T14:09:37.404Z,27.61
2023-07-28T14:14:40.309Z,27.56
2023-07-28T14:19:43.368Z,27.60
2023-07-28T14:24:47.687Z,27.57
2023-07-28T14:29:50.522Z,27.62
2023-07-28T14:34:53.758Z,27.59
2023-07-28T14:39:58.226Z,27.55
2023-07-28T14:45:02.089Z,27.59
2023-07-28T14:50:05.428Z,27.63
2023-07-28T14:55:14.351Z,27.65
2023-07-28T15:00:19.263Z,27.62
2023-07-28T15:05:22.108Z,27.61
2023-07-28T15:10:26.272Z,27.70
2023-07-28T15:15:29.216Z,27.68
2023-07-28T15:20:32.193Z,27.65
2023-07-28T15:25:36.404Z,27.64
2023-07-28T15:30:39.358Z,27.69
2023-07-28T15:35:42.415Z,27.72
2023-07-28T15:40:47.057Z,27.76
2023-07-28T15:45:53.309Z,27.78
2023-07-28T15:50:56.224Z,27.72
2023-07-28T15:56:00.561Z,27.73
2023-07-28T16:01:04.243Z,27.80
2023-07-28T16:06:09.203Z,27.87
2023-07-28T16:11:17.129Z,27.90
2023-07-28T16:16:20.198Z,27.94
2023-07-28T16:21:23.074Z,27.96
2023-07-28T16:26:27.385Z,27.99
2023-07-28T16:31:30.422Z,28.02
2023-07-28T16:36:33.384Z,28.08
2023-07-28T16:41:37.857Z,28.23
2023-07-28T16:46:41.215Z,28.36
2023-07-28T16:51:44.230Z,28.38
2023-07-28T16:56:48.607Z,28.47
2023-07-28T17:01:51.570Z,28.50
2023-07-28T17:06:54.508Z,28.40
2023-07-28T17:11:59.475Z,28.54
2023-07-28T17:17:05.841Z,28.53
2023-07-28T17:22:08.685Z,28.52
2023-07-28T17:27:13.093Z,28.63
2023-07-28T17:32:15.947Z,28.76
2023-07-28T17:37:19.086Z,28.80
2023-07-28T17:42:26.118Z,28.72
2023-07-28T17:47:28.960Z,28.87
2023-07-28T17:52:32.444Z,28.79
2023-07-28T17:57:36.637Z,28.91
2023-07-28T18:02:39.761Z,28.84
2023-07-28T18:07:42.801Z,28.75
2023-07-28T18:12:47.033Z,28.87
2023-07-28T18:17:49.952Z,28.82
2023-07-28T18:22:52.834Z,28.83
2023-07-28T18:27:57.810Z,28.80
2023-07-28T18:33:00.813Z,28.86
2023-07-28T18:38:03.838Z,28.90
2023-07-28T18:43:08.299Z,28.95
2023-07-28T18:48:11.174Z,29.15
2023-07-28T18:53:14.096Z,29.22
2023-07-28T18:58:18.237Z,29.21
2023-07-28T19:03:21.125Z,29.13
2023-07-28T19:08:24.054Z,29.20
2023-07-28T19:13:28.628Z,29.40
2023-07-28T19:18:31.564Z,29.36
2023-07-28T19:23:34.443Z,29.30
2023-07-28T19:28:38.654Z,29.47
2023-07-28T19:33:42.092Z,29.45
2023-07-28T19:38:46.088Z,29.61
2023-07-28T19:43:50.266Z,29.59
2023-07-28T19:48:53.877Z,29.38
2023-07-28T19:54:00.397Z,29.43
2023-07-28T19:59:11.613Z,29.63
2023-07-28T20:04:14.381Z,29.72
2023-07-28T20:09:17.283Z,29.78
2023-07-28T20:14:21.822Z,29.81
2023-07-28T20:19:24.842Z,29.77
2023-07-28T20:24:27.647Z,29.90
2023-07-28T20:29:31.805Z,29.86
2023-07-28T20:34:34.820Z,30.02
2023-07-28T20:39:37.712Z,30.01
2023-07-28T20:44:41.907Z,30.04
2023-07-28T20:49:45.374Z,30.03
2023-07-28T20:54:52.097Z,30.03
2023-07-28T20:59:56.479Z,30.05
2023-07-28T21:04:59.944Z,29.94
2023-07-28T21:10:04.068Z,30.16
2023-07-28T21:15:09.500Z,30.20
2023-07-28T21:20:13.842Z,30.13
2023-07-28T21:25:16.874Z,30.09
2023-07-28T21:30:21.378Z,30.11
2023-07-28T21:35:24.249Z,30.06
2023-07-28T21:40:27.427Z,29.99
2023-07-28T21:45:31.643Z,29.99
2023-07-28T21:50:34.496Z,30.00
2023-07-28T21:55:37.440Z,29.97
2023-07-28T22:00:42.534Z,29.95
2023-07-28T22:05:45.556Z,29.92
2023-07-28T22:10:48.450Z,29.92
2023-07-28T22:15:53.993Z,29.86
2023-07-28T22:20:58.989Z,29.81
2023-07-28T22:26:02.197Z,29.73
2023-07-28T22:31:06.375Z,29.77
2023-07-28T22:36:09.196Z,29.77
2023-07-28T22:41:12.022Z,29.77
2023-07-28T22:46:16.350Z,29.73
2023-07-28T22:51:19.125Z,29.69
2023-07-28T22:56:22.025Z,29.63
2023-07-28T23:01:26.260Z,29.57
2023-07-28T23:06:29.354Z,29.55
2023-07-28T23:11:32.564Z,29.56
2023-07-28T23:16:36.949Z,29.62
2023-07-28T23:21:40.007Z,29.75
2023-07-28T23:26:42.833Z,29.65
2023-07-28T23:31:47.044Z,29.65
2023-07-28T23:36:49.895Z,29.56
2023-07-28T23:41:52.856Z,29.53
2023-07-28T23:46:57.989Z,29.44
2023-07-28T23:52:00.963Z,29.44
2023-07-28T23:57:03.947Z,29.47
